Home   Weather   Wingsbach   Past weeks
Flag for Germany

Past Weather in Wingsbach, Hesse, Germany — January 2022

Currently: 65 °F. Sunny. (Weather station: Wiesbaden Airport, Germany). See more current weather

January 2022 Weather in Wingsbach — Graph

°F

High & Low Weather Summary for January 2022

 TemperatureHumidityPressure
High53 °F (Jan 2, 9:56 pm)100% (Jan 1, 10:01 pm)30.80 "Hg (Jan 1, 10:01 pm)
Low28 °F (Jan 6, 11:56 pm)38% (Jan 6, 3:56 pm)29.31 "Hg (Jan 9, 2:56 am)
Average39 °F80%30.26 "Hg
* Reported Jan 1 12:56 am — Jan 31 11:56 pm, Wingsbach. Weather by CustomWeather, © 2022

Note: Actual official high and low records may vary slightly from our data, if they occured in-between our weather recording intervals... More about our weather records

Wingsbach Weather History for January 1, 2022

Scroll right to see more
 ConditionsComfort  
Time TempWeatherWind HumidityBarometerVisibility
12:56 am
Sat, Jan 1
50 °FOvercast.6 mph76%30.30 "HgN/A
1:56 am50 °FOvercast.3 mph76%30.30 "HgN/A
2:56 am50 °FOvercast.No wind76%30.30 "HgN/A
3:56 am51 °FOvercast.No wind73%30.30 "HgN/A
4:56 am50 °FOvercast.3 mph76%30.31 "HgN/A
5:56 am50 °FOvercast.No wind74%30.32 "HgN/A
6:56 am48 °FOvercast.5 mph82%30.33 "HgN/A
7:56 am48 °FOvercast.5 mph87%30.34 "HgN/A
8:56 am48 °FOvercast.No wind87%30.36 "HgN/A
9:41 am50 °FMostly cloudy.6 mph82%30.35 "HgN/A
10:21 am50 °FMostly cloudy.3 mph82%30.35 "HgN/A
10:56 am51 °FMostly cloudy.3 mph77%30.35 "HgN/A
11:26 am52 °FMore clouds than sun.No wind72%30.35 "HgN/A
11:56 am51 °FMostly cloudy.No wind73%30.35 "HgN/A
12:31 pm52 °FMore clouds than sun.No wind67%30.34 "HgN/A
12:56 pm52 °FMore clouds than sun.No wind67%30.33 "HgN/A
2:06 pm52 °FMore clouds than sun.No wind72%30.31 "HgN/A
2:36 pm52 °FMostly cloudy.No wind72%30.30 "HgN/A
3:06 pm52 °FOvercast.3 mph72%30.29 "HgN/A
3:26 pm52 °FOvercast.No wind72%30.29 "HgN/A
3:56 pm52 °FOvercast.No wind72%30.29 "HgN/A
4:56 pm51 °FOvercast.No wind74%30.29 "HgN/A
5:56 pm52 °FOvercast.No wind72%30.29 "HgN/A
6:21 pm52 °FPassing clouds.No wind72%30.28 "HgN/A
6:56 pm50 °FClear.No wind74%30.28 "HgN/A
8:06 pm46 °FFog.3 mph93%30.27 "Hg6 mi
9:11 pm46 °FFog.No wind87%30.27 "Hg1 mi
9:16 pm46 °FFog.No wind87%30.26 "Hg1 mi
9:36 pm45 °FFog.No wind93%30.26 "Hg1 mi
10:01 pm45 °FFog.No wind100%30.24 "Hg1 mi
10:16 pm43 °FFog.No wind100%30.25 "Hg1 mi
10:36 pm43 °FFog.No wind100%30.24 "Hg1 mi
10:56 pm43 °FFog.No wind99%30.24 "Hg4 mi
11:21 pm41 °FFog.No wind100%30.23 "Hg1 mi
11:36 pm41 °FFog.No wind100%30.24 "Hg1 mi
11:56 pm41 °FFog.No wind99%30.24 "Hg1 mi
Weather by CustomWeather, © 2022

See weather overview